sensor_id;sensor_type;location;lat;lon;timestamp;pressure;altitude;pressure_sealevel;temperature;humidity
76132;BME280;64877;50.994;13.650;2023-07-13T00:02:18;99268.59;;;21.39;75.32
76132;BME280;64877;50.994;13.650;2023-07-13T00:04:44;99269.22;;;21.41;73.97
76132;BME280;64877;50.994;13.650;2023-07-13T00:07:09;99281.31;;;21.47;73.87
76132;BME280;64877;50.994;13.650;2023-07-13T00:09:35;99283.72;;;21.57;73.37
76132;BME280;64877;50.994;13.650;2023-07-13T00:12:01;99283.59;;;21.65;73.85
76132;BME280;64877;50.994;13.650;2023-07-13T00:14:27;99291.63;;;21.66;73.09
76132;BME280;64877;50.994;13.650;2023-07-13T00:16:54;99286.56;;;21.70;72.73
76132;BME280;64877;50.994;13.650;2023-07-13T00:19:19;99295.38;;;21.59;71.78
76132;BME280;64877;50.994;13.650;2023-07-13T00:21:45;99306.16;;;21.60;71.97
76132;BME280;64877;50.994;13.650;2023-07-13T00:24:13;99326.53;;;21.45;73.00
76132;BME280;64877;50.994;13.650;2023-07-13T00:26:39;99331.78;;;21.39;74.80
76132;BME280;64877;50.994;13.650;2023-07-13T00:29:05;99333.72;;;21.46;75.44
76132;BME280;64877;50.994;13.650;2023-07-13T00:31:34;99348.53;;;21.45;72.67
76132;BME280;64877;50.994;13.650;2023-07-13T00:34:00;99357.34;;;21.40;71.55
76132;BME280;64877;50.994;13.650;2023-07-13T00:36:25;99377.16;;;21.35;75.96
76132;BME280;64877;50.994;13.650;2023-07-13T00:38:51;99395.00;;;21.25;76.22
76132;BME280;64877;50.994;13.650;2023-07-13T00:41:17;99391.41;;;21.24;76.96
76132;BME280;64877;50.994;13.650;2023-07-13T00:43:42;99388.16;;;21.35;78.62
76132;BME280;64877;50.994;13.650;2023-07-13T00:46:31;99398.59;;;21.25;80.17
76132;BME280;64877;50.994;13.650;2023-07-13T00:49:01;99390.47;;;21.17;81.45
76132;BME280;64877;50.994;13.650;2023-07-13T00:51:31;99386.13;;;21.08;78.40
76132;BME280;64877;50.994;13.650;2023-07-13T00:54:00;99356.94;;;20.85;81.52
76132;BME280;64877;50.994;13.650;2023-07-13T00:56:28;99333.41;;;20.61;86.10
76132;BME280;64877;50.994;13.650;2023-07-13T00:58:55;99294.72;;;20.42;88.33
76132;BME280;64877;50.994;13.650;2023-07-13T01:01:20;99277.91;;;20.30;89.99
76132;BME280;64877;50.994;13.650;2023-07-13T01:03:46;99304.84;;;19.97;92.25
76132;BME280;64877;50.994;13.650;2023-07-13T01:06:12;99320.38;;;20.04;94.74
76132;BME280;64877;50.994;13.650;2023-07-13T01:08:37;99318.28;;;19.92;96.39
76132;BME280;64877;50.994;13.650;2023-07-13T01:11:04;99316.84;;;19.96;97.19
76132;BME280;64877;50.994;13.650;2023-07-13T01:13:29;99322.69;;;19.93;95.18
76132;BME280;64877;50.994;13.650;2023-07-13T01:15:57;99328.38;;;19.91;93.88
76132;BME280;64877;50.994;13.650;2023-07-13T01:18:27;99325.28;;;19.94;93.23
76132;BME280;64877;50.994;13.650;2023-07-13T01:20:58;99330.00;;;19.85;94.92
76132;BME280;64877;50.994;13.650;2023-07-13T01:23:26;99319.50;;;19.89;96.08
76132;BME280;64877;50.994;13.650;2023-07-13T01:25:53;99329.03;;;19.93;95.83
76132;BME280;64877;50.994;13.650;2023-07-13T01:28:19;99329.78;;;19.87;99.35
76132;BME280;64877;50.994;13.650;2023-07-13T01:30:46;99323.25;;;19.73;98.42
76132;BME280;64877;50.994;13.650;2023-07-13T01:33:16;99315.03;;;19.73;97.09
76132;BME280;64877;50.994;13.650;2023-07-13T01:35:43;99310.84;;;19.62;94.89
76132;BME280;64877;50.994;13.650;2023-07-13T01:38:10;99313.72;;;19.46;97.43
76132;BME280;64877;50.994;13.650;2023-07-13T01:40:36;99317.69;;;19.58;97.48
76132;BME280;64877;50.994;13.650;2023-07-13T01:43:02;99324.78;;;19.53;100.00
76132;BME280;64877;50.994;13.650;2023-07-13T01:45:28;99327.41;;;19.69;99.23
76132;BME280;64877;50.994;13.650;2023-07-13T01:47:53;99320.97;;;19.62;99.05
76132;BME280;64877;50.994;13.650;2023-07-13T01:50:18;99319.06;;;19.62;99.99
76132;BME280;64877;50.994;13.650;2023-07-13T01:52:44;99314.84;;;19.52;100.00
76132;BME280;64877;50.994;13.650;2023-07-13T01:55:09;99299.91;;;19.40;100.00
76132;BME280;64877;50.994;13.650;2023-07-13T01:57:35;99303.81;;;19.22;100.00
76132;BME280;64877;50.994;13.650;2023-07-13T02:00:06;99307.66;;;19.13;100.00
76132;BME280;64877;50.994;13.650;2023-07-13T02:02:32;99311.91;;;18.93;100.00
76132;BME280;64877;50.994;13.650;2023-07-13T02:04:57;99318.19;;;19.01;100.00
76132;BME280;64877;50.994;13.650;2023-07-13T02:07:23;99315.56;;;19.08;100.00
76132;BME280;64877;50.994;13.650;2023-07-13T02:09:48;99313.91;;;19.22;100.00
76132;BME280;64877;50.994;13.650;2023-07-13T02:12:13;99310.22;;;19.15;100.00
76132;BME280;64877;50.994;13.650;2023-07-13T02:14:39;99302.66;;;19.17;100.00
76132;BME280;64877;50.994;13.650;2023-07-13T02:17:05;99304.38;;;18.95;100.00
76132;BME280;64877;50.994;13.650;2023-07-13T02:19:31;99302.28;;;18.97;100.00
76132;BME280;64877;50.994;13.650;2023-07-13T02:21:56;99301.88;;;19.08;100.00
76132;BME280;64877;50.994;13.650;2023-07-13T02:24:22;99306.31;;;19.09;100.00
76132;BME280;64877;50.994;13.650;2023-07-13T02:26:48;99309.91;;;19.09;100.00
76132;BME280;64877;50.994;13.650;2023-07-13T02:29:13;99310.06;;;19.08;100.00
76132;BME280;64877;50.994;13.650;2023-07-13T02:31:38;99312.06;;;19.14;100.00
76132;BME280;64877;50.994;13.650;2023-07-13T02:34:04;99314.16;;;19.12;100.00
76132;BME280;64877;50.994;13.650;2023-07-13T02:36:30;99310.56;;;19.11;100.00
76132;BME280;64877;50.994;13.650;2023-07-13T02:38:57;99312.75;;;19.16;100.00
76132;BME280;64877;50.994;13.650;2023-07-13T02:41:23;99319.41;;;19.22;100.00
76132;BME280;64877;50.994;13.650;2023-07-13T02:43:48;99315.75;;;19.29;100.00
76132;BME280;64877;50.994;13.650;2023-07-13T02:46:14;99321.88;;;19.31;100.00
76132;BME280;64877;50.994;13.650;2023-07-13T02:48:40;99332.72;;;19.25;100.00
76132;BME280;64877;50.994;13.650;2023-07-13T02:51:06;99333.09;;;19.22;100.00
76132;BME280;64877;50.994;13.650;2023-07-13T02:53:32;99321.03;;;19.31;100.00
76132;BME280;64877;50.994;13.650;2023-07-13T02:55:58;99323.78;;;19.31;100.00
76132;BME280;64877;50.994;13.650;2023-07-13T02:58:23;99317.75;;;19.35;100.00
76132;BME280;64877;50.994;13.650;2023-07-13T03:00:48;99326.31;;;19.32;100.00
76132;BME280;64877;50.994;13.650;2023-07-13T03:03:15;99324.56;;;19.40;100.00
76132;BME280;64877;50.994;13.650;2023-07-13T03:05:42;99332.94;;;19.38;100.00
76132;BME280;64877;50.994;13.650;2023-07-13T03:08:10;99332.41;;;19.43;100.00
76132;BME280;64877;50.994;13.650;2023-07-13T03:10:36;99327.97;;;19.42;100.00
76132;BME280;64877;50.994;13.650;2023-07-13T03:13:02;99326.38;;;19.24;100.00
76132;BME280;64877;50.994;13.650;2023-07-13T03:15:27;99334.44;;;19.26;100.00
76132;BME280;64877;50.994;13.650;2023-07-13T03:17:53;99337.16;;;19.26;100.00
76132;BME280;64877;50.994;13.650;2023-07-13T03:20:18;99332.19;;;19.29;100.00
76132;BME280;64877;50.994;13.650;2023-07-13T03:22:44;99335.78;;;19.30;100.00
76132;BME280;64877;50.994;13.650;2023-07-13T03:25:10;99341.28;;;19.22;100.00
76132;BME280;64877;50.994;13.650;2023-07-13T03:27:36;99344.88;;;19.22;100.00
76132;BME280;64877;50.994;13.650;2023-07-13T03:30:02;99349.50;;;19.22;100.00
76132;BME280;64877;50.994;13.650;2023-07-13T03:32:28;99340.63;;;19.20;100.00
76132;BME280;64877;50.994;13.650;2023-07-13T03:34:53;99339.75;;;19.19;100.00
76132;BME280;64877;50.994;13.650;2023-07-13T03:37:18;99344.78;;;19.16;100.00
76132;BME280;64877;50.994;13.650;2023-07-13T03:39:44;99342.88;;;19.16;100.00
76132;BME280;64877;50.994;13.650;2023-07-13T03:42:09;99340.94;;;19.25;100.00
76132;BME280;64877;50.994;13.650;2023-07-13T03:44:35;99343.28;;;19.28;100.00
76132;BME280;64877;50.994;13.650;2023-07-13T03:47:00;99349.47;;;19.30;100.00
76132;BME280;64877;50.994;13.650;2023-07-13T03:49:26;99338.56;;;19.45;100.00
76132;BME280;64877;50.994;13.650;2023-07-13T03:51:51;99345.53;;;19.47;100.00
76132;BME280;64877;50.994;13.650;2023-07-13T03:54:16;99352.72;;;19.48;100.00
76132;BME280;64877;50.994;13.650;2023-07-13T03:56:42;99353.94;;;19.46;100.00
76132;BME280;64877;50.994;13.650;2023-07-13T03:59:07;99354.25;;;19.51;100.00
76132;BME280;64877;50.994;13.650;2023-07-13T04:01:33;99354.50;;;19.64;100.00
76132;BME280;64877;50.994;13.650;2023-07-13T04:03:58;99363.41;;;19.66;100.00
76132;BME280;64877;50.994;13.650;2023-07-13T04:06:28;99363.69;;;19.71;100.00
76132;BME280;64877;50.994;13.650;2023-07-13T04:08:56;99367.38;;;19.78;100.00
76132;BME280;64877;50.994;13.650;2023-07-13T04:11:23;99370.72;;;19.88;100.00
76132;BME280;64877;50.994;13.650;2023-07-13T04:13:49;99382.13;;;19.77;100.00
76132;BME280;64877;50.994;13.650;2023-07-13T04:16:17;99381.78;;;19.80;100.00
76132;BME280;64877;50.994;13.650;2023-07-13T04:18:43;99379.69;;;19.82;100.00
76132;BME280;64877;50.994;13.650;2023-07-13T04:21:09;99382.72;;;19.87;100.00
76132;BME280;64877;50.994;13.650;2023-07-13T04:23:35;99386.16;;;19.90;99.64
76132;BME280;64877;50.994;13.650;2023-07-13T04:26:01;99380.66;;;19.90;98.80
76132;BME280;64877;50.994;13.650;2023-07-13T04:28:27;99387.84;;;19.91;99.76
76132;BME280;64877;50.994;13.650;2023-07-13T04:30:53;99381.03;;;19.86;98.73
76132;BME280;64877;50.994;13.650;2023-07-13T04:33:19;99384.34;;;19.97;98.33
76132;BME280;64877;50.994;13.650;2023-07-13T04:35:50;99382.25;;;19.99;98.20
76132;BME280;64877;50.994;13.650;2023-07-13T04:38:27;99378.66;;;19.98;98.66
76132;BME280;64877;50.994;13.650;2023-07-13T04:40:58;99383.31;;;19.98;96.25
76132;BME280;64877;50.994;13.650;2023-07-13T04:43:25;99396.09;;;20.05;96.41
76132;BME280;64877;50.994;13.650;2023-07-13T04:45:51;99403.00;;;20.16;96.45
76132;BME280;64877;50.994;13.650;2023-07-13T04:48:17;99400.34;;;20.23;97.40
76132;BME280;64877;50.994;13.650;2023-07-13T04:50:42;99403.22;;;20.29;96.42
76132;BME280;64877;50.994;13.650;2023-07-13T04:53:08;99392.81;;;20.39;95.40
76132;BME280;64877;50.994;13.650;2023-07-13T04:55:34;99406.91;;;20.36;95.40
76132;BME280;64877;50.994;13.650;2023-07-13T04:57:59;99405.13;;;20.58;95.72
76132;BME280;64877;50.994;13.650;2023-07-13T05:00:26;99406.44;;;20.62;94.65
76132;BME280;64877;50.994;13.650;2023-07-13T05:02:51;99400.69;;;20.72;92.85
76132;BME280;64877;50.994;13.650;2023-07-13T05:05:16;99401.81;;;20.78;91.57
76132;BME280;64877;50.994;13.650;2023-07-13T05:07:42;99398.97;;;20.71;89.72
76132;BME280;64877;50.994;13.650;2023-07-13T05:10:08;99400.94;;;20.92;89.76
76132;BME280;64877;50.994;13.650;2023-07-13T05:12:34;99399.31;;;20.98;90.90
76132;BME280;64877;50.994;13.650;2023-07-13T05:14:59;99405.72;;;21.20;90.34
76132;BME280;64877;50.994;13.650;2023-07-13T05:17:24;99408.91;;;21.59;83.28
76132;BME280;64877;50.994;13.650;2023-07-13T05:19:50;99399.94;;;21.72;84.69
76132;BME280;64877;50.994;13.650;2023-07-13T05:22:15;99405.94;;;21.82;83.14
76132;BME280;64877;50.994;13.650;2023-07-13T05:24:41;99396.66;;;21.83;84.14
76132;BME280;64877;50.994;13.650;2023-07-13T05:27:06;99392.47;;;21.66;83.19
76132;BME280;64877;50.994;13.650;2023-07-13T05:29:31;99402.03;;;21.70;84.57
76132;BME280;64877;50.994;13.650;2023-07-13T05:31:57;99400.72;;;21.66;85.28
76132;BME280;64877;50.994;13.650;2023-07-13T05:34:23;99413.00;;;21.91;85.09
76132;BME280;64877;50.994;13.650;2023-07-13T05:36:48;99413.50;;;22.02;84.23
76132;BME280;64877;50.994;13.650;2023-07-13T05:39:15;99409.06;;;22.01;84.66
76132;BME280;64877;50.994;13.650;2023-07-13T05:41:40;99415.47;;;22.08;82.46
76132;BME280;64877;50.994;13.650;2023-07-13T05:44:06;99409.03;;;22.22;82.35
76132;BME280;64877;50.994;13.650;2023-07-13T05:46:31;99412.00;;;22.49;81.70
76132;BME280;64877;50.994;13.650;2023-07-13T05:48:56;99412.78;;;23.18;78.79
76132;BME280;64877;50.994;13.650;2023-07-13T05:51:22;99409.38;;;23.97;74.70
76132;BME280;64877;50.994;13.650;2023-07-13T05:53:47;99406.59;;;24.37;70.02
76132;BME280;64877;50.994;13.650;2023-07-13T05:56:12;99403.41;;;24.40;66.74
76132;BME280;64877;50.994;13.650;2023-07-13T05:58:38;99401.91;;;24.44;65.83
76132;BME280;64877;50.994;13.650;2023-07-13T06:01:10;99401.88;;;24.51;63.95
76132;BME280;64877;50.994;13.650;2023-07-13T06:03:36;99401.78;;;24.91;63.45
76132;BME280;64877;50.994;13.650;2023-07-13T06:06:04;99404.63;;;25.29;61.47
76132;BME280;64877;50.994;13.650;2023-07-13T06:08:30;99406.41;;;25.48;60.17
76132;BME280;64877;50.994;13.650;2023-07-13T06:11:02;99416.13;;;25.96;57.68
76132;BME280;64877;50.994;13.650;2023-07-13T06:13:27;99402.34;;;25.89;58.28
76132;BME280;64877;50.994;13.650;2023-07-13T06:15:53;99405.22;;;26.26;55.11
76132;BME280;64877;50.994;13.650;2023-07-13T06:18:18;99416.16;;;26.64;52.75
76132;BME280;64877;50.994;13.650;2023-07-13T06:20:43;99411.91;;;26.80;52.49
76132;BME280;64877;50.994;13.650;2023-07-13T06:23:09;99417.78;;;26.90;50.98
76132;BME280;64877;50.994;13.650;2023-07-13T06:25:34;99425.56;;;26.82;50.74
76132;BME280;64877;50.994;13.650;2023-07-13T06:27:59;99419.44;;;27.46;49.76
76132;BME280;64877;50.994;13.650;2023-07-13T06:30:25;99421.78;;;27.31;49.49
76132;BME280;64877;50.994;13.650;2023-07-13T06:32:51;99412.25;;;27.87;48.40
76132;BME280;64877;50.994;13.650;2023-07-13T06:35:16;99424.88;;;27.71;48.37
76132;BME280;64877;50.994;13.650;2023-07-13T06:37:42;99422.00;;;27.60;48.65
76132;BME280;64877;50.994;13.650;2023-07-13T06:40:07;99423.03;;;27.95;47.38
76132;BME280;64877;50.994;13.650;2023-07-13T06:42:33;99426.00;;;28.94;45.64
76132;BME280;64877;50.994;13.650;2023-07-13T06:44:58;99426.88;;;29.64;44.04
76132;BME280;64877;50.994;13.650;2023-07-13T06:47:24;99438.47;;;29.32;43.03
76132;BME280;64877;50.994;13.650;2023-07-13T06:49:49;99439.63;;;29.07;43.08
76132;BME280;64877;50.994;13.650;2023-07-13T06:52:14;99436.47;;;28.92;43.60
76132;BME280;64877;50.994;13.650;2023-07-13T06:54:40;99442.28;;;28.79;43.28
76132;BME280;64877;50.994;13.650;2023-07-13T06:57:05;99447.28;;;29.29;41.38
76132;BME280;64877;50.994;13.650;2023-07-13T06:59:31;99449.94;;;28.95;40.78
76132;BME280;64877;50.994;13.650;2023-07-13T07:01:56;99452.47;;;28.85;39.96
76132;BME280;64877;50.994;13.650;2023-07-13T07:04:21;99451.38;;;28.63;41.56
76132;BME280;64877;50.994;13.650;2023-07-13T07:06:47;99452.41;;;28.26;40.24
76132;BME280;64877;50.994;13.650;2023-07-13T07:09:12;99454.78;;;28.65;40.87
76132;BME280;64877;50.994;13.650;2023-07-13T07:11:38;99453.78;;;28.71;40.24
76132;BME280;64877;50.994;13.650;2023-07-13T07:14:04;99463.84;;;28.95;40.10
76132;BME280;64877;50.994;13.650;2023-07-13T07:16:30;99458.50;;;29.46;38.57
76132;BME280;64877;50.994;13.650;2023-07-13T07:18:55;99458.66;;;29.39;37.89
76132;BME280;64877;50.994;13.650;2023-07-13T07:21:20;99449.69;;;29.77;36.94
76132;BME280;64877;50.994;13.650;2023-07-13T07:23:48;99449.41;;;29.50;36.67
76132;BME280;64877;50.994;13.650;2023-07-13T07:26:14;99453.31;;;30.23;35.68
76132;BME280;64877;50.994;13.650;2023-07-13T07:28:39;99459.16;;;30.89;34.86
76132;BME280;64877;50.994;13.650;2023-07-13T07:31:06;99458.63;;;31.80;32.78
76132;BME280;64877;50.994;13.650;2023-07-13T07:33:33;99450.56;;;32.75;32.13
76132;BME280;64877;50.994;13.650;2023-07-13T07:35:58;99444.97;;;32.75;30.29
76132;BME280;64877;50.994;13.650;2023-07-13T07:38:24;99453.97;;;34.02;29.18
76132;BME280;64877;50.994;13.650;2023-07-13T07:40:49;99445.78;;;35.13;27.83
76132;BME280;64877;50.994;13.650;2023-07-13T07:43:15;99445.84;;;36.80;25.53
76132;BME280;64877;50.994;13.650;2023-07-13T07:45:40;99454.13;;;38.43;23.98
76132;BME280;64877;50.994;13.650;2023-07-13T07:48:06;99449.19;;;39.55;22.01
76132;BME280;64877;50.994;13.650;2023-07-13T07:50:32;99450.56;;;36.85;23.27
76132;BME280;64877;50.994;13.650;2023-07-13T07:52:57;99442.47;;;38.96;22.63
76132;BME280;64877;50.994;13.650;2023-07-13T07:55:23;99440.63;;;38.72;22.25
76132;BME280;64877;50.994;13.650;2023-07-13T07:57:52;99438.66;;;38.21;22.06
76132;BME280;64877;50.994;13.650;2023-07-13T08:00:18;99446.09;;;37.37;23.08
76132;BME280;64877;50.994;13.650;2023-07-13T08:02:44;99449.50;;;36.81;24.37
76132;BME280;64877;50.994;13.650;2023-07-13T08:05:10;99448.59;;;36.85;23.99
76132;BME280;64877;50.994;13.650;2023-07-13T08:07:37;99455.41;;;37.08;24.40
76132;BME280;64877;50.994;13.650;2023-07-13T08:10:06;99452.31;;;37.76;22.87
76132;BME280;64877;50.994;13.650;2023-07-13T08:12:37;99463.59;;;38.98;21.76
76132;BME280;64877;50.994;13.650;2023-07-13T08:15:03;99455.50;;;40.02;21.86
76132;BME280;64877;50.994;13.650;2023-07-13T08:17:28;99460.78;;;41.07;20.21
76132;BME280;64877;50.994;13.650;2023-07-13T08:19:54;99452.50;;;41.76;19.24
76132;BME280;64877;50.994;13.650;2023-07-13T08:22:19;99460.22;;;41.85;18.86
76132;BME280;64877;50.994;13.650;2023-07-13T08:24:45;99449.72;;;40.43;19.78
76132;BME280;64877;50.994;13.650;2023-07-13T08:27:11;99462.59;;;40.13;20.37
76132;BME280;64877;50.994;13.650;2023-07-13T08:29:37;99454.81;;;40.55;20.38
76132;BME280;64877;50.994;13.650;2023-07-13T08:32:02;99460.34;;;40.91;20.13
76132;BME280;64877;50.994;13.650;2023-07-13T08:34:28;99460.25;;;40.74;19.63
76132;BME280;64877;50.994;13.650;2023-07-13T08:36:53;99448.50;;;41.20;19.60
76132;BME280;64877;50.994;13.650;2023-07-13T08:39:18;99463.53;;;39.59;20.92
76132;BME280;64877;50.994;13.650;2023-07-13T08:41:46;99460.91;;;36.65;23.79
76132;BME280;64877;50.994;13.650;2023-07-13T08:44:27;99457.38;;;37.74;22.94
76132;BME280;64877;50.994;13.650;2023-07-13T08:46:57;99463.31;;;36.77;24.15
76132;BME280;64877;50.994;13.650;2023-07-13T08:49:24;99467.22;;;35.63;24.44
76132;BME280;64877;50.994;13.650;2023-07-13T08:52:04;99461.28;;;34.29;26.23
76132;BME280;64877;50.994;13.650;2023-07-13T08:54:37;99464.41;;;32.54;28.09
76132;BME280;64877;50.994;13.650;2023-07-13T08:57:11;99465.84;;;31.76;29.53
76132;BME280;64877;50.994;13.650;2023-07-13T08:59:38;99477.56;;;30.56;30.69
76132;BME280;64877;50.994;13.650;2023-07-13T09:10:28;99482.63;;;29.40;33.36
76132;BME280;64877;50.994;13.650;2023-07-13T09:13:12;99476.44;;;29.38;34.37
76132;BME280;64877;50.994;13.650;2023-07-13T09:15:46;99476.97;;;29.64;34.20
76132;BME280;64877;50.994;13.650;2023-07-13T09:18:29;99478.59;;;28.96;34.42
76132;BME280;64877;50.994;13.650;2023-07-13T09:21:02;99484.50;;;29.11;35.71
76132;BME280;64877;50.994;13.650;2023-07-13T09:23:30;99494.38;;;29.30;34.76
76132;BME280;64877;50.994;13.650;2023-07-13T09:26:12;99490.91;;;29.12;34.58
76132;BME280;64877;50.994;13.650;2023-07-13T09:28:42;99489.31;;;28.80;35.55
76132;BME280;64877;50.994;13.650;2023-07-13T09:31:12;99492.25;;;28.97;35.14
76132;BME280;64877;50.994;13.650;2023-07-13T09:33:39;99496.09;;;29.08;36.10
76132;BME280;64877;50.994;13.650;2023-07-13T09:36:29;99484.75;;;28.98;34.69
76132;BME280;64877;50.994;13.650;2023-07-13T09:44:18;99502.84;;;28.12;35.79
76132;BME280;64877;50.994;13.650;2023-07-13T09:46:54;99503.94;;;28.11;36.28
76132;BME280;64877;50.994;13.650;2023-07-13T09:49:35;99506.63;;;27.87;36.03
76132;BME280;64877;50.994;13.650;2023-07-13T09:52:03;99501.63;;;28.07;35.85
76132;BME280;64877;50.994;13.650;2023-07-13T09:54:34;99503.00;;;28.17;36.08
76132;BME280;64877;50.994;13.650;2023-07-13T09:57:00;99508.09;;;28.31;36.74
76132;BME280;64877;50.994;13.650;2023-07-13T09:59:40;99502.63;;;28.55;36.08
76132;BME280;64877;50.994;13.650;2023-07-13T10:02:29;99498.50;;;28.69;36.15
76132;BME280;64877;50.994;13.650;2023-07-13T10:05:04;99508.53;;;28.58;36.04
76132;BME280;64877;50.994;13.650;2023-07-13T10:07:31;99502.03;;;28.23;36.91
76132;BME280;64877;50.994;13.650;2023-07-13T10:10:00;99502.47;;;28.08;36.57
76132;BME280;64877;50.994;13.650;2023-07-13T10:12:28;99496.41;;;27.99;38.59
76132;BME280;64877;50.994;13.650;2023-07-13T10:14:57;99499.13;;;27.76;36.97
76132;BME280;64877;50.994;13.650;2023-07-13T10:17:29;99503.13;;;27.80;37.80
76132;BME280;64877;50.994;13.650;2023-07-13T10:20:03;99502.69;;;27.46;42.22
76132;BME280;64877;50.994;13.650;2023-07-13T10:23:08;99503.84;;;27.39;37.66
76132;BME280;64877;50.994;13.650;2023-07-13T10:25:41;99517.56;;;26.72;45.16
76132;BME280;64877;50.994;13.650;2023-07-13T10:30:58;99508.78;;;26.18;42.04
76132;BME280;64877;50.994;13.650;2023-07-13T10:33:25;99514.56;;;26.17;46.81
76132;BME280;64877;50.994;13.650;2023-07-13T10:35:53;99509.00;;;25.92;49.42
76132;BME280;64877;50.994;13.650;2023-07-13T10:38:22;99506.25;;;26.17;49.85
76132;BME280;64877;50.994;13.650;2023-07-13T10:41:01;99495.16;;;26.48;44.33
76132;BME280;64877;50.994;13.650;2023-07-13T10:43:33;99507.00;;;26.30;49.09
76132;BME280;64877;50.994;13.650;2023-07-13T10:46:04;99505.09;;;25.99;53.26
76132;BME280;64877;50.994;13.650;2023-07-13T10:48:31;99497.78;;;26.12;50.11
76132;BME280;64877;50.994;13.650;2023-07-13T10:51:00;99505.00;;;26.13;51.29
76132;BME280;64877;50.994;13.650;2023-07-13T10:53:34;99494.50;;;25.90;46.38
76132;BME280;64877;50.994;13.650;2023-07-13T10:56:03;99492.88;;;25.75;47.33
76132;BME280;64877;50.994;13.650;2023-07-13T10:58:37;99487.38;;;25.69;51.18
76132;BME280;64877;50.994;13.650;2023-07-13T11:03:33;99494.13;;;25.86;47.85
76132;BME280;64877;50.994;13.650;2023-07-13T11:06:16;99494.44;;;26.03;45.07
76132;BME280;64877;50.994;13.650;2023-07-13T11:18:52;99499.84;;;25.91;43.06
76132;BME280;64877;50.994;13.650;2023-07-13T11:21:32;99501.00;;;25.64;48.43
76132;BME280;64877;50.994;13.650;2023-07-13T11:24:17;99500.72;;;25.34;48.81
76132;BME280;64877;50.994;13.650;2023-07-13T11:31:52;99498.44;;;25.69;46.72
76132;BME280;64877;50.994;13.650;2023-07-13T11:34:21;99495.44;;;25.70;47.02
76132;BME280;64877;50.994;13.650;2023-07-13T11:36:50;99493.75;;;25.69;49.52
76132;BME280;64877;50.994;13.650;2023-07-13T11:39:33;99492.88;;;25.82;46.16
76132;BME280;64877;50.994;13.650;2023-07-13T11:42:03;99485.88;;;25.73;42.71
76132;BME280;64877;50.994;13.650;2023-07-13T11:44:32;99487.34;;;25.82;45.58
76132;BME280;64877;50.994;13.650;2023-07-13T11:47:00;99495.53;;;25.95;46.44
76132;BME280;64877;50.994;13.650;2023-07-13T11:49:41;99488.81;;;26.16;45.68
76132;BME280;64877;50.994;13.650;2023-07-13T11:52:11;99482.78;;;26.26;45.13
76132;BME280;64877;50.994;13.650;2023-07-13T11:54:47;99479.00;;;26.14;43.28
76132;BME280;64877;50.994;13.650;2023-07-13T11:57:30;99478.94;;;26.20;40.35
76132;BME280;64877;50.994;13.650;2023-07-13T11:59:57;99472.84;;;26.43;38.84
76132;BME280;64877;50.994;13.650;2023-07-13T12:04:55;99483.91;;;25.80;45.59
76132;BME280;64877;50.994;13.650;2023-07-13T12:07:22;99481.84;;;25.69;47.38
76132;BME280;64877;50.994;13.650;2023-07-13T12:09:47;99475.56;;;25.48;48.04
76132;BME280;64877;50.994;13.650;2023-07-13T12:12:21;99477.34;;;25.36;46.39
76132;BME280;64877;50.994;13.650;2023-07-13T12:14:51;99474.13;;;25.39;47.57
76132;BME280;64877;50.994;13.650;2023-07-13T12:17:22;99471.31;;;25.46;43.75
76132;BME280;64877;50.994;13.650;2023-07-13T12:19:49;99471.81;;;25.36;48.78
76132;BME280;64877;50.994;13.650;2023-07-13T12:22:17;99473.88;;;25.41;48.68
76132;BME280;64877;50.994;13.650;2023-07-13T12:24:44;99466.78;;;25.58;50.18
76132;BME280;64877;50.994;13.650;2023-07-13T12:27:21;99464.28;;;25.88;42.09
76132;BME280;64877;50.994;13.650;2023-07-13T12:29:57;99470.72;;;26.14;45.05
76132;BME280;64877;50.994;13.650;2023-07-13T12:32:25;99465.34;;;26.19;44.61
76132;BME280;64877;50.994;13.650;2023-07-13T12:35:15;99470.09;;;26.12;43.67
76132;BME280;64877;50.994;13.650;2023-07-13T12:37:44;99467.88;;;26.20;42.97
76132;BME280;64877;50.994;13.650;2023-07-13T12:40:16;99469.63;;;26.15;43.87
76132;BME280;64877;50.994;13.650;2023-07-13T12:42:46;99465.28;;;26.25;41.09
76132;BME280;64877;50.994;13.650;2023-07-13T12:47:48;99466.63;;;26.48;43.16
76132;BME280;64877;50.994;13.650;2023-07-13T12:50:18;99469.63;;;26.40;41.66
76132;BME280;64877;50.994;13.650;2023-07-13T12:52:53;99471.34;;;26.16;40.41
76132;BME280;64877;50.994;13.650;2023-07-13T12:55:20;99462.66;;;26.06;42.17
76132;BME280;64877;50.994;13.650;2023-07-13T12:57:56;99462.06;;;26.03;43.83
76132;BME280;64877;50.994;13.650;2023-07-13T13:02:56;99462.22;;;26.09;42.30
76132;BME280;64877;50.994;13.650;2023-07-13T13:05:25;99469.44;;;26.10;42.57
76132;BME280;64877;50.994;13.650;2023-07-13T13:07:51;99467.47;;;25.92;37.67
76132;BME280;64877;50.994;13.650;2023-07-13T13:10:17;99467.69;;;25.90;38.09
76132;BME280;64877;50.994;13.650;2023-07-13T13:12:42;99460.44;;;25.89;39.25
76132;BME280;64877;50.994;13.650;2023-07-13T13:15:09;99461.53;;;25.88;40.48
76132;BME280;64877;50.994;13.650;2023-07-13T13:17:35;99454.88;;;25.96;39.63
76132;BME280;64877;50.994;13.650;2023-07-13T13:20:00;99461.72;;;25.93;39.82
76132;BME280;64877;50.994;13.650;2023-07-13T13:22:26;99464.72;;;25.92;39.68
76132;BME280;64877;50.994;13.650;2023-07-13T13:24:51;99460.44;;;25.96;40.26
76132;BME280;64877;50.994;13.650;2023-07-13T13:27:19;99445.09;;;25.93;37.05
76132;BME280;64877;50.994;13.650;2023-07-13T13:29:46;99458.19;;;26.11;38.78
76132;BME280;64877;50.994;13.650;2023-07-13T13:32:13;99451.97;;;26.16;38.59
76132;BME280;64877;50.994;13.650;2023-07-13T13:34:39;99459.41;;;26.15;38.21